sensor_id;sensor_type;location;lat;lon;timestamp;P1;durP1;ratioP1;P2;durP2;ratioP2
44026;SDS011;29696;55.698;37.460;2022-11-14T00:00:44;0.63;;;0.63;;
44026;SDS011;29696;55.698;37.460;2022-11-14T00:03:30;0.80;;;0.80;;
44026;SDS011;29696;55.698;37.460;2022-11-14T00:06:15;0.35;;;0.35;;
44026;SDS011;29696;55.698;37.460;2022-11-14T00:08:59;0.60;;;0.60;;
44026;SDS011;29696;55.698;37.460;2022-11-14T00:11:44;0.50;;;0.50;;
44026;SDS011;29696;55.698;37.460;2022-11-14T00:14:29;0.63;;;0.63;;
44026;SDS011;29696;55.698;37.460;2022-11-14T00:17:14;1.45;;;0.70;;
44026;SDS011;29696;55.698;37.460;2022-11-14T00:19:59;2.23;;;0.40;;
44026;SDS011;29696;55.698;37.460;2022-11-14T00:22:44;0.52;;;0.50;;
44026;SDS011;29696;55.698;37.460;2022-11-14T00:25:28;1.15;;;0.68;;
44026;SDS011;29696;55.698;37.460;2022-11-14T00:28:13;0.50;;;0.50;;
44026;SDS011;29696;55.698;37.460;2022-11-14T00:30:58;1.45;;;0.80;;
44026;SDS011;29696;55.698;37.460;2022-11-14T00:33:43;1.02;;;1.02;;
44026;SDS011;29696;55.698;37.460;2022-11-14T00:36:27;1.55;;;0.80;;
44026;SDS011;29696;55.698;37.460;2022-11-14T00:39:12;0.73;;;0.70;;
44026;SDS011;29696;55.698;37.460;2022-11-14T00:44:42;0.50;;;0.50;;
44026;SDS011;29696;55.698;37.460;2022-11-14T00:47:29;0.90;;;0.70;;
44026;SDS011;29696;55.698;37.460;2022-11-14T00:50:14;0.52;;;0.52;;
44026;SDS011;29696;55.698;37.460;2022-11-14T00:53:00;0.87;;;0.63;;
44026;SDS011;29696;55.698;37.460;2022-11-14T00:55:45;0.63;;;0.60;;
44026;SDS011;29696;55.698;37.460;2022-11-14T00:58:29;0.85;;;0.60;;
44026;SDS011;29696;55.698;37.460;2022-11-14T01:01:14;0.60;;;0.60;;
44026;SDS011;29696;55.698;37.460;2022-11-14T01:03:59;0.90;;;0.55;;
44026;SDS011;29696;55.698;37.460;2022-11-14T01:06:44;0.85;;;0.50;;
44026;SDS011;29696;55.698;37.460;2022-11-14T01:09:29;1.77;;;0.68;;
44026;SDS011;29696;55.698;37.460;2022-11-14T01:12:13;1.48;;;0.57;;
44026;SDS011;29696;55.698;37.460;2022-11-14T01:14:58;0.68;;;0.68;;
44026;SDS011;29696;55.698;37.460;2022-11-14T01:17:43;1.77;;;1.67;;
44026;SDS011;29696;55.698;37.460;2022-11-14T01:20:28;2.13;;;1.92;;
44026;SDS011;29696;55.698;37.460;2022-11-14T01:23:13;1.95;;;0.60;;
44026;SDS011;29696;55.698;37.460;2022-11-14T01:26:02;0.60;;;0.60;;
44026;SDS011;29696;55.698;37.460;2022-11-14T01:28:48;2.93;;;0.77;;
44026;SDS011;29696;55.698;37.460;2022-11-14T01:31:33;1.10;;;1.00;;
44026;SDS011;29696;55.698;37.460;2022-11-14T01:34:18;0.60;;;0.60;;
44026;SDS011;29696;55.698;37.460;2022-11-14T01:37:02;1.17;;;0.50;;
44026;SDS011;29696;55.698;37.460;2022-11-14T01:39:47;0.65;;;0.57;;
44026;SDS011;29696;55.698;37.460;2022-11-14T01:42:32;0.68;;;0.68;;
44026;SDS011;29696;55.698;37.460;2022-11-14T01:55:15;0.40;;;0.40;;
44026;SDS011;29696;55.698;37.460;2022-11-14T01:58:00;0.65;;;0.65;;
44026;SDS011;29696;55.698;37.460;2022-11-14T02:00:45;0.50;;;0.50;;
44026;SDS011;29696;55.698;37.460;2022-11-14T02:03:29;0.75;;;0.68;;
44026;SDS011;29696;55.698;37.460;2022-11-14T02:06:16;0.60;;;0.60;;
44026;SDS011;29696;55.698;37.460;2022-11-14T02:09:05;4.33;;;0.57;;
44026;SDS011;29696;55.698;37.460;2022-11-14T02:11:51;1.30;;;0.50;;
44026;SDS011;29696;55.698;37.460;2022-11-14T02:14:38;2.17;;;0.50;;
44026;SDS011;29696;55.698;37.460;2022-11-14T02:17:25;0.50;;;0.50;;
44026;SDS011;29696;55.698;37.460;2022-11-14T02:23:27;1.43;;;1.00;;
44026;SDS011;29696;55.698;37.460;2022-11-14T02:26:17;1.33;;;0.60;;
44026;SDS011;29696;55.698;37.460;2022-11-14T02:29:03;1.03;;;0.80;;
44026;SDS011;29696;55.698;37.460;2022-11-14T02:31:51;0.50;;;0.50;;
44026;SDS011;29696;55.698;37.460;2022-11-14T02:34:36;0.50;;;0.50;;
44026;SDS011;29696;55.698;37.460;2022-11-14T02:37:21;1.40;;;0.77;;
44026;SDS011;29696;55.698;37.460;2022-11-14T02:40:06;1.92;;;0.77;;
44026;SDS011;29696;55.698;37.460;2022-11-14T02:42:51;1.17;;;0.80;;
44026;SDS011;29696;55.698;37.460;2022-11-14T02:45:36;0.60;;;0.60;;
44026;SDS011;29696;55.698;37.460;2022-11-14T02:48:21;1.42;;;1.00;;
44026;SDS011;29696;55.698;37.460;2022-11-14T02:51:06;1.40;;;0.77;;
44026;SDS011;29696;55.698;37.460;2022-11-14T02:53:51;0.63;;;0.63;;
44026;SDS011;29696;55.698;37.460;2022-11-14T02:56:36;4.47;;;1.98;;
44026;SDS011;29696;55.698;37.460;2022-11-14T02:59:20;0.98;;;0.77;;
44026;SDS011;29696;55.698;37.460;2022-11-14T03:02:05;1.00;;;0.98;;
44026;SDS011;29696;55.698;37.460;2022-11-14T03:04:50;1.05;;;0.95;;
44026;SDS011;29696;55.698;37.460;2022-11-14T03:07:35;2.17;;;1.95;;
44026;SDS011;29696;55.698;37.460;2022-11-14T03:10:20;3.75;;;1.00;;
44026;SDS011;29696;55.698;37.460;2022-11-14T03:13:05;1.13;;;0.90;;
44026;SDS011;29696;55.698;37.460;2022-11-14T03:15:50;1.45;;;1.20;;
44026;SDS011;29696;55.698;37.460;2022-11-14T03:18:35;1.80;;;1.15;;
44026;SDS011;29696;55.698;37.460;2022-11-14T03:21:21;10.70;;;2.38;;
44026;SDS011;29696;55.698;37.460;2022-11-14T03:24:06;2.10;;;0.87;;
44026;SDS011;29696;55.698;37.460;2022-11-14T03:26:51;6.72;;;0.90;;
44026;SDS011;29696;55.698;37.460;2022-11-14T03:29:36;18.20;;;2.80;;
44026;SDS011;29696;55.698;37.460;2022-11-14T03:32:20;2.22;;;0.70;;
44026;SDS011;29696;55.698;37.460;2022-11-14T03:35:05;2.15;;;1.90;;
44026;SDS011;29696;55.698;37.460;2022-11-14T03:40:38;1.87;;;0.90;;
44026;SDS011;29696;55.698;37.460;2022-11-14T03:43:24;2.57;;;2.07;;
44026;SDS011;29696;55.698;37.460;2022-11-14T03:48:54;4.43;;;1.00;;
44026;SDS011;29696;55.698;37.460;2022-11-14T03:51:38;1.77;;;1.27;;
44026;SDS011;29696;55.698;37.460;2022-11-14T03:54:23;1.30;;;0.88;;
44026;SDS011;29696;55.698;37.460;2022-11-14T03:57:08;5.35;;;1.23;;
44026;SDS011;29696;55.698;37.460;2022-11-14T03:59:53;2.78;;;1.35;;
44026;SDS011;29696;55.698;37.460;2022-11-14T04:02:38;1.55;;;0.90;;
44026;SDS011;29696;55.698;37.460;2022-11-14T04:05:23;3.42;;;0.80;;
44026;SDS011;29696;55.698;37.460;2022-11-14T04:08:08;3.03;;;1.17;;
44026;SDS011;29696;55.698;37.460;2022-11-14T04:10:52;0.75;;;0.75;;
44026;SDS011;29696;55.698;37.460;2022-11-14T04:13:37;1.73;;;1.08;;
44026;SDS011;29696;55.698;37.460;2022-11-14T04:16:22;1.40;;;1.25;;
44026;SDS011;29696;55.698;37.460;2022-11-14T04:19:07;2.22;;;1.10;;
44026;SDS011;29696;55.698;37.460;2022-11-14T04:21:51;3.90;;;1.63;;
44026;SDS011;29696;55.698;37.460;2022-11-14T04:24:36;2.28;;;1.10;;
44026;SDS011;29696;55.698;37.460;2022-11-14T04:27:21;1.00;;;1.00;;
44026;SDS011;29696;55.698;37.460;2022-11-14T04:30:06;5.57;;;1.33;;
44026;SDS011;29696;55.698;37.460;2022-11-14T04:32:51;3.90;;;1.00;;
44026;SDS011;29696;55.698;37.460;2022-11-14T04:35:36;2.42;;;0.90;;
44026;SDS011;29696;55.698;37.460;2022-11-14T04:38:21;2.92;;;0.70;;
44026;SDS011;29696;55.698;37.460;2022-11-14T04:41:06;6.38;;;1.00;;
44026;SDS011;29696;55.698;37.460;2022-11-14T04:43:50;1.17;;;1.05;;
44026;SDS011;29696;55.698;37.460;2022-11-14T04:46:35;1.52;;;0.90;;
44026;SDS011;29696;55.698;37.460;2022-11-14T04:49:20;4.47;;;1.42;;
44026;SDS011;29696;55.698;37.460;2022-11-14T04:52:05;2.08;;;1.08;;
44026;SDS011;29696;55.698;37.460;2022-11-14T04:54:49;4.40;;;1.55;;
44026;SDS011;29696;55.698;37.460;2022-11-14T04:57:34;2.60;;;1.15;;
44026;SDS011;29696;55.698;37.460;2022-11-14T05:00:19;3.25;;;1.58;;
44026;SDS011;29696;55.698;37.460;2022-11-14T05:03:04;2.40;;;1.20;;
44026;SDS011;29696;55.698;37.460;2022-11-14T05:05:49;1.23;;;1.10;;
44026;SDS011;29696;55.698;37.460;2022-11-14T05:08:33;1.02;;;0.93;;
44026;SDS011;29696;55.698;37.460;2022-11-14T05:11:19;5.82;;;1.92;;
44026;SDS011;29696;55.698;37.460;2022-11-14T05:16:48;4.23;;;2.77;;
44026;SDS011;29696;55.698;37.460;2022-11-14T05:19:33;2.80;;;1.00;;
44026;SDS011;29696;55.698;37.460;2022-11-14T05:22:18;8.98;;;1.80;;
44026;SDS011;29696;55.698;37.460;2022-11-14T05:28:12;2.00;;;1.00;;
44026;SDS011;29696;55.698;37.460;2022-11-14T05:31:03;3.13;;;1.13;;
44026;SDS011;29696;55.698;37.460;2022-11-14T05:33:50;2.53;;;2.07;;
44026;SDS011;29696;55.698;37.460;2022-11-14T05:36:35;3.37;;;1.87;;
44026;SDS011;29696;55.698;37.460;2022-11-14T05:39:20;2.85;;;1.67;;
44026;SDS011;29696;55.698;37.460;2022-11-14T05:42:05;5.00;;;2.03;;
44026;SDS011;29696;55.698;37.460;2022-11-14T05:44:50;7.13;;;1.67;;
44026;SDS011;29696;55.698;37.460;2022-11-14T05:47:35;6.18;;;1.52;;
44026;SDS011;29696;55.698;37.460;2022-11-14T05:50:20;8.63;;;1.63;;
44026;SDS011;29696;55.698;37.460;2022-11-14T05:53:05;2.73;;;1.43;;
44026;SDS011;29696;55.698;37.460;2022-11-14T05:55:50;1.52;;;1.38;;
44026;SDS011;29696;55.698;37.460;2022-11-14T05:58:35;3.08;;;1.90;;
44026;SDS011;29696;55.698;37.460;2022-11-14T06:01:20;5.68;;;2.10;;
44026;SDS011;29696;55.698;37.460;2022-11-14T06:04:05;2.28;;;1.40;;
44026;SDS011;29696;55.698;37.460;2022-11-14T06:06:50;2.30;;;1.70;;
44026;SDS011;29696;55.698;37.460;2022-11-14T06:09:34;4.18;;;2.33;;
44026;SDS011;29696;55.698;37.460;2022-11-14T06:12:19;5.30;;;2.22;;
44026;SDS011;29696;55.698;37.460;2022-11-14T06:15:04;5.43;;;1.90;;
44026;SDS011;29696;55.698;37.460;2022-11-14T06:17:51;3.97;;;1.77;;
44026;SDS011;29696;55.698;37.460;2022-11-14T06:20:38;6.10;;;1.40;;
44026;SDS011;29696;55.698;37.460;2022-11-14T06:23:23;5.78;;;1.92;;
44026;SDS011;29696;55.698;37.460;2022-11-14T06:26:18;4.75;;;1.65;;
44026;SDS011;29696;55.698;37.460;2022-11-14T06:29:23;4.87;;;1.90;;
44026;SDS011;29696;55.698;37.460;2022-11-14T06:32:08;4.80;;;1.38;;
44026;SDS011;29696;55.698;37.460;2022-11-14T06:34:52;2.60;;;1.33;;
44026;SDS011;29696;55.698;37.460;2022-11-14T06:37:37;2.42;;;1.20;;
44026;SDS011;29696;55.698;37.460;2022-11-14T06:40:48;5.83;;;2.20;;
44026;SDS011;29696;55.698;37.460;2022-11-14T06:43:33;6.88;;;2.40;;
44026;SDS011;29696;55.698;37.460;2022-11-14T06:46:19;6.50;;;1.70;;
44026;SDS011;29696;55.698;37.460;2022-11-14T06:49:06;3.00;;;1.40;;
44026;SDS011;29696;55.698;37.460;2022-11-14T06:51:51;7.55;;;2.95;;
44026;SDS011;29696;55.698;37.460;2022-11-14T06:54:36;5.15;;;1.92;;
44026;SDS011;29696;55.698;37.460;2022-11-14T06:57:20;6.10;;;2.25;;
44026;SDS011;29696;55.698;37.460;2022-11-14T07:00:05;6.28;;;1.63;;
44026;SDS011;29696;55.698;37.460;2022-11-14T07:05:35;2.83;;;1.83;;
44026;SDS011;29696;55.698;37.460;2022-11-14T07:08:20;5.13;;;1.80;;
44026;SDS011;29696;55.698;37.460;2022-11-14T07:11:06;4.85;;;2.25;;
44026;SDS011;29696;55.698;37.460;2022-11-14T07:13:55;8.17;;;3.97;;
44026;SDS011;29696;55.698;37.460;2022-11-14T07:16:44;2.87;;;1.37;;
44026;SDS011;29696;55.698;37.460;2022-11-14T07:19:29;6.70;;;1.58;;
44026;SDS011;29696;55.698;37.460;2022-11-14T07:22:13;9.73;;;2.80;;
44026;SDS011;29696;55.698;37.460;2022-11-14T07:24:59;5.47;;;2.35;;
44026;SDS011;29696;55.698;37.460;2022-11-14T07:27:43;8.20;;;1.75;;
44026;SDS011;29696;55.698;37.460;2022-11-14T07:30:28;5.18;;;2.17;;
44026;SDS011;29696;55.698;37.460;2022-11-14T07:33:13;3.50;;;1.92;;
44026;SDS011;29696;55.698;37.460;2022-11-14T07:35:58;5.53;;;1.90;;
44026;SDS011;29696;55.698;37.460;2022-11-14T07:38:43;2.88;;;1.88;;
44026;SDS011;29696;55.698;37.460;2022-11-14T07:41:28;2.55;;;1.80;;
44026;SDS011;29696;55.698;37.460;2022-11-14T07:44:13;3.38;;;1.13;;
44026;SDS011;29696;55.698;37.460;2022-11-14T07:46:57;7.10;;;1.73;;
44026;SDS011;29696;55.698;37.460;2022-11-14T07:49:42;3.20;;;1.38;;
44026;SDS011;29696;55.698;37.460;2022-11-14T07:52:27;2.45;;;1.65;;
44026;SDS011;29696;55.698;37.460;2022-11-14T07:55:14;8.63;;;1.50;;
44026;SDS011;29696;55.698;37.460;2022-11-14T07:57:59;7.20;;;2.35;;
44026;SDS011;29696;55.698;37.460;2022-11-14T08:00:44;2.95;;;1.20;;
44026;SDS011;29696;55.698;37.460;2022-11-14T08:03:29;3.42;;;1.45;;
44026;SDS011;29696;55.698;37.460;2022-11-14T08:06:14;8.60;;;2.00;;
44026;SDS011;29696;55.698;37.460;2022-11-14T08:08:59;3.50;;;1.67;;
44026;SDS011;29696;55.698;37.460;2022-11-14T08:11:44;2.75;;;1.90;;
44026;SDS011;29696;55.698;37.460;2022-11-14T08:14:32;3.77;;;2.17;;
44026;SDS011;29696;55.698;37.460;2022-11-14T08:20:04;3.80;;;1.60;;
44026;SDS011;29696;55.698;37.460;2022-11-14T08:22:50;11.63;;;1.83;;
44026;SDS011;29696;55.698;37.460;2022-11-14T08:28:20;6.97;;;2.67;;
44026;SDS011;29696;55.698;37.460;2022-11-14T08:31:05;3.88;;;1.58;;
44026;SDS011;29696;55.698;37.460;2022-11-14T08:33:50;2.22;;;1.33;;
44026;SDS011;29696;55.698;37.460;2022-11-14T08:36:35;5.33;;;2.33;;
44026;SDS011;29696;55.698;37.460;2022-11-14T08:39:20;4.15;;;1.55;;
44026;SDS011;29696;55.698;37.460;2022-11-14T08:42:05;9.52;;;1.63;;
44026;SDS011;29696;55.698;37.460;2022-11-14T08:44:50;15.82;;;3.30;;
44026;SDS011;29696;55.698;37.460;2022-11-14T08:47:35;3.03;;;1.77;;
44026;SDS011;29696;55.698;37.460;2022-11-14T08:50:20;5.15;;;2.28;;
44026;SDS011;29696;55.698;37.460;2022-11-14T08:53:04;6.75;;;2.65;;
44026;SDS011;29696;55.698;37.460;2022-11-14T08:55:49;5.53;;;2.28;;
44026;SDS011;29696;55.698;37.460;2022-11-14T08:58:34;4.28;;;2.15;;
44026;SDS011;29696;55.698;37.460;2022-11-14T09:01:19;2.53;;;1.77;;
44026;SDS011;29696;55.698;37.460;2022-11-14T09:04:04;4.72;;;1.95;;
44026;SDS011;29696;55.698;37.460;2022-11-14T09:06:49;7.57;;;2.20;;
44026;SDS011;29696;55.698;37.460;2022-11-14T09:09:35;7.13;;;3.10;;
44026;SDS011;29696;55.698;37.460;2022-11-14T09:12:20;3.53;;;1.98;;
44026;SDS011;29696;55.698;37.460;2022-11-14T09:15:05;3.00;;;1.77;;
44026;SDS011;29696;55.698;37.460;2022-11-14T09:17:53;6.40;;;2.10;;
44026;SDS011;29696;55.698;37.460;2022-11-14T09:20:38;4.87;;;1.97;;
44026;SDS011;29696;55.698;37.460;2022-11-14T09:23:23;5.53;;;2.63;;
44026;SDS011;29696;55.698;37.460;2022-11-14T09:28:53;12.07;;;2.27;;
44026;SDS011;29696;55.698;37.460;2022-11-14T09:31:38;1.98;;;1.33;;
44026;SDS011;29696;55.698;37.460;2022-11-14T09:34:23;3.60;;;1.65;;
44026;SDS011;29696;55.698;37.460;2022-11-14T09:37:08;4.28;;;1.50;;
44026;SDS011;29696;55.698;37.460;2022-11-14T09:39:52;6.60;;;1.67;;
44026;SDS011;29696;55.698;37.460;2022-11-14T09:46:10;11.02;;;2.60;;
44026;SDS011;29696;55.698;37.460;2022-11-14T09:49:32;10.17;;;1.60;;
44026;SDS011;29696;55.698;37.460;2022-11-14T09:55:44;4.83;;;1.93;;
44026;SDS011;29696;55.698;37.460;2022-11-14T09:58:29;3.25;;;2.08;;
44026;SDS011;29696;55.698;37.460;2022-11-14T10:11:13;19.80;;;4.47;;
44026;SDS011;29696;55.698;37.460;2022-11-14T10:18:07;2.60;;;1.83;;
44026;SDS011;29696;55.698;37.460;2022-11-14T10:21:50;10.63;;;1.87;;
44026;SDS011;29696;55.698;37.460;2022-11-14T10:24:48;4.47;;;1.60;;
44026;SDS011;29696;55.698;37.460;2022-11-14T10:31:47;3.17;;;1.70;;
44026;SDS011;29696;55.698;37.460;2022-11-14T10:35:03;6.93;;;2.77;;
44026;SDS011;29696;55.698;37.460;2022-11-14T10:42:00;10.57;;;2.87;;
44026;SDS011;29696;55.698;37.460;2022-11-14T10:44:52;2.57;;;2.07;;
44026;SDS011;29696;55.698;37.460;2022-11-14T10:47:47;4.60;;;2.07;;
44026;SDS011;29696;55.698;37.460;2022-11-14T10:50:46;3.13;;;1.60;;
44026;SDS011;29696;55.698;37.460;2022-11-14T10:56:52;8.23;;;2.30;;
44026;SDS011;29696;55.698;37.460;2022-11-14T10:59:38;2.67;;;2.40;;
44026;SDS011;29696;55.698;37.460;2022-11-14T11:02:23;2.13;;;1.42;;
44026;SDS011;29696;55.698;37.460;2022-11-14T11:05:13;6.97;;;2.17;;
44026;SDS011;29696;55.698;37.460;2022-11-14T11:07:59;4.77;;;2.07;;
44026;SDS011;29696;55.698;37.460;2022-11-14T11:11:19;2.83;;;1.70;;
44026;SDS011;29696;55.698;37.460;2022-11-14T11:14:17;10.47;;;2.20;;
44026;SDS011;29696;55.698;37.460;2022-11-14T11:20:22;4.23;;;1.50;;
44026;SDS011;29696;55.698;37.460;2022-11-14T11:23:17;4.30;;;2.37;;
44026;SDS011;29696;55.698;37.460;2022-11-14T11:26:07;4.80;;;2.07;;
44026;SDS011;29696;55.698;37.460;2022-11-14T11:32:06;2.20;;;1.63;;
44026;SDS011;29696;55.698;37.460;2022-11-14T11:34:51;2.83;;;2.30;;
44026;SDS011;29696;55.698;37.460;2022-11-14T11:37:39;3.03;;;1.60;;
44026;SDS011;29696;55.698;37.460;2022-11-14T11:40:47;4.87;;;1.87;;
44026;SDS011;29696;55.698;37.460;2022-11-14T11:50:00;9.93;;;1.83;;
44026;SDS011;29696;55.698;37.460;2022-11-14T11:56:17;4.27;;;1.93;;
44026;SDS011;29696;55.698;37.460;2022-11-14T11:59:25;6.13;;;3.17;;
44026;SDS011;29696;55.698;37.460;2022-11-14T12:02:22;9.50;;;3.27;;
44026;SDS011;29696;55.698;37.460;2022-11-14T12:05:15;6.83;;;2.50;;
44026;SDS011;29696;55.698;37.460;2022-11-14T12:12:12;11.83;;;1.97;;
44026;SDS011;29696;55.698;37.460;2022-11-14T12:15:30;3.80;;;2.00;;
44026;SDS011;29696;55.698;37.460;2022-11-14T12:26:10;7.13;;;2.00;;
44026;SDS011;29696;55.698;37.460;2022-11-14T12:32:46;2.77;;;2.10;;
44026;SDS011;29696;55.698;37.460;2022-11-14T12:35:45;3.87;;;1.73;;
44026;SDS011;29696;55.698;37.460;2022-11-14T12:38:39;3.13;;;1.52;;
44026;SDS011;29696;55.698;37.460;2022-11-14T12:41:35;4.70;;;2.40;;
44026;SDS011;29696;55.698;37.460;2022-11-14T12:47:29;7.40;;;2.67;;
44026;SDS011;29696;55.698;37.460;2022-11-14T12:50:27;5.90;;;2.47;;
44026;SDS011;29696;55.698;37.460;2022-11-14T12:59:51;6.50;;;2.17;;
44026;SDS011;29696;55.698;37.460;2022-11-14T13:03:04;4.07;;;2.50;;
44026;SDS011;29696;55.698;37.460;2022-11-14T13:13:27;4.07;;;1.53;;
44026;SDS011;29696;55.698;37.460;2022-11-14T13:16:30;7.50;;;2.03;;
44026;SDS011;29696;55.698;37.460;2022-11-14T13:19:37;5.63;;;2.60;;
44026;SDS011;29696;55.698;37.460;2022-11-14T13:22:47;7.07;;;1.97;;
44026;SDS011;29696;55.698;37.460;2022-11-14T13:25:32;9.98;;;1.52;;
44026;SDS011;29696;55.698;37.460;2022-11-14T13:42:08;9.30;;;2.10;;
44026;SDS011;29696;55.698;37.460;2022-11-14T13:52:15;3.63;;;1.67;;
44026;SDS011;29696;55.698;37.460;2022-11-14T13:55:00;4.10;;;2.53;;
44026;SDS011;29696;55.698;37.460;2022-11-14T14:01:14;8.07;;;2.17;;
44026;SDS011;29696;55.698;37.460;2022-11-14T14:15:18;8.37;;;2.03;;
44026;SDS011;29696;55.698;37.460;2022-11-14T14:22:07;7.67;;;2.13;;
44026;SDS011;29696;55.698;37.460;2022-11-14T14:25:30;7.37;;;3.67;;
44026;SDS011;29696;55.698;37.460;2022-11-14T14:32:10;7.83;;;3.53;;
44026;SDS011;29696;55.698;37.460;2022-11-14T14:38:12;6.73;;;2.37;;
44026;SDS011;29696;55.698;37.460;2022-11-14T14:41:08;2.10;;;1.80;;
44026;SDS011;29696;55.698;37.460;2022-11-14T14:43:54;4.20;;;2.63;;
44026;SDS011;29696;55.698;37.460;2022-11-14T14:46:39;4.80;;;2.28;;
44026;SDS011;29696;55.698;37.460;2022-11-14T14:49:25;5.22;;;2.13;;
44026;SDS011;29696;55.698;37.460;2022-11-14T14:52:32;4.80;;;2.93;;
44026;SDS011;29696;55.698;37.460;2022-11-14T14:55:23;6.23;;;2.40;;
44026;SDS011;29696;55.698;37.460;2022-11-14T15:01:30;4.90;;;2.67;;
44026;SDS011;29696;55.698;37.460;2022-11-14T15:04:17;3.80;;;2.67;;
44026;SDS011;29696;55.698;37.460;2022-11-14T15:07:14;10.60;;;2.57;;
44026;SDS011;29696;55.698;37.460;2022-11-14T15:10:05;6.20;;;2.33;;
44026;SDS011;29696;55.698;37.460;2022-11-14T15:12:51;7.20;;;2.80;;
44026;SDS011;29696;55.698;37.460;2022-11-14T15:15:37;5.30;;;2.70;;
44026;SDS011;29696;55.698;37.460;2022-11-14T15:18:23;13.45;;;2.85;;
44026;SDS011;29696;55.698;37.460;2022-11-14T15:21:29;7.37;;;2.70;;
44026;SDS011;29696;55.698;37.460;2022-11-14T15:24:15;19.75;;;4.63;;
44026;SDS011;29696;55.698;37.460;2022-11-14T15:27:03;6.93;;;2.70;;
44026;SDS011;29696;55.698;37.460;2022-11-14T15:29:56;4.90;;;2.93;;
44026;SDS011;29696;55.698;37.460;2022-11-14T15:32:50;5.00;;;3.67;;
44026;SDS011;29696;55.698;37.460;2022-11-14T15:35:39;16.15;;;3.38;;
44026;SDS011;29696;55.698;37.460;2022-11-14T15:38:24;10.70;;;2.92;;
44026;SDS011;29696;55.698;37.460;2022-11-14T15:41:22;8.20;;;2.97;;
44026;SDS011;29696;55.698;37.460;2022-11-14T15:47:16;8.83;;;3.47;;
44026;SDS011;29696;55.698;37.460;2022-11-14T15:50:31;7.90;;;3.27;;
44026;SDS011;29696;55.698;37.460;2022-11-14T15:56:28;15.00;;;4.40;;
44026;SDS011;29696;55.698;37.460;2022-11-14T16:02:01;13.03;;;4.47;;
44026;SDS011;29696;55.698;37.460;2022-11-14T16:04:54;8.80;;;3.42;;
44026;SDS011;29696;55.698;37.460;2022-11-14T16:07:39;7.10;;;2.53;;
44026;SDS011;29696;55.698;37.460;2022-11-14T16:10:25;8.07;;;3.03;;
44026;SDS011;29696;55.698;37.460;2022-11-14T16:13:11;8.13;;;2.77;;
44026;SDS011;29696;55.698;37.460;2022-11-14T16:15:56;8.23;;;3.38;;
44026;SDS011;29696;55.698;37.460;2022-11-14T16:18:41;10.55;;;3.78;;
44026;SDS011;29696;55.698;37.460;2022-11-14T16:21:25;8.55;;;3.70;;
44026;SDS011;29696;55.698;37.460;2022-11-14T16:24:12;7.97;;;3.70;;
44026;SDS011;29696;55.698;37.460;2022-11-14T16:26:59;12.37;;;3.47;;
44026;SDS011;29696;55.698;37.460;2022-11-14T16:32:29;8.10;;;4.03;;
44026;SDS011;29696;55.698;37.460;2022-11-14T16:35:15;11.75;;;4.50;;
44026;SDS011;29696;55.698;37.460;2022-11-14T16:38:04;5.53;;;3.23;;
44026;SDS011;29696;55.698;37.460;2022-11-14T16:40:49;13.48;;;3.03;;
44026;SDS011;29696;55.698;37.460;2022-11-14T16:43:34;3.95;;;2.65;;
44026;SDS011;29696;55.698;37.460;2022-11-14T16:46:18;7.10;;;3.80;;
44026;SDS011;29696;55.698;37.460;2022-11-14T16:49:03;7.90;;;4.82;;
44026;SDS011;29696;55.698;37.460;2022-11-14T16:51:48;8.18;;;3.47;;
44026;SDS011;29696;55.698;37.460;2022-11-14T16:54:34;4.47;;;2.53;;
44026;SDS011;29696;55.698;37.460;2022-11-14T16:57:19;7.28;;;3.10;;
44026;SDS011;29696;55.698;37.460;2022-11-14T17:00:05;11.07;;;2.72;;
44026;SDS011;29696;55.698;37.460;2022-11-14T17:02:51;11.67;;;4.67;;
44026;SDS011;29696;55.698;37.460;2022-11-14T17:05:43;7.78;;;3.40;;
44026;SDS011;29696;55.698;37.460;2022-11-14T17:08:29;8.93;;;3.00;;
44026;SDS011;29696;55.698;37.460;2022-11-14T17:11:14;11.98;;;3.20;;
44026;SDS011;29696;55.698;37.460;2022-11-14T17:13:59;11.65;;;4.07;;
44026;SDS011;29696;55.698;37.460;2022-11-14T17:16:44;5.13;;;2.92;;
44026;SDS011;29696;55.698;37.460;2022-11-14T17:19:29;8.87;;;4.60;;
44026;SDS011;29696;55.698;37.460;2022-11-14T17:22:15;7.90;;;3.95;;
44026;SDS011;29696;55.698;37.460;2022-11-14T17:25:01;6.80;;;3.63;;
44026;SDS011;29696;55.698;37.460;2022-11-14T17:27:45;8.50;;;4.05;;
44026;SDS011;29696;55.698;37.460;2022-11-14T17:30:33;7.17;;;3.20;;
44026;SDS011;29696;55.698;37.460;2022-11-14T17:33:18;7.75;;;3.78;;
44026;SDS011;29696;55.698;37.460;2022-11-14T17:36:04;11.70;;;3.75;;
44026;SDS011;29696;55.698;37.460;2022-11-14T17:38:50;4.30;;;2.40;;
44026;SDS011;29696;55.698;37.460;2022-11-14T17:44:20;9.50;;;2.87;;
44026;SDS011;29696;55.698;37.460;2022-11-14T17:47:04;9.90;;;2.75;;
44026;SDS011;29696;55.698;37.460;2022-11-14T17:49:49;5.60;;;3.00;;
44026;SDS011;29696;55.698;37.460;2022-11-14T17:52:34;5.27;;;2.33;;
44026;SDS011;29696;55.698;37.460;2022-11-14T17:55:18;13.00;;;6.20;;
44026;SDS011;29696;55.698;37.460;2022-11-14T17:58:03;10.00;;;5.22;;
44026;SDS011;29696;55.698;37.460;2022-11-14T18:00:48;18.42;;;6.22;;
44026;SDS011;29696;55.698;37.460;2022-11-14T18:03:34;10.23;;;4.40;;
44026;SDS011;29696;55.698;37.460;2022-11-14T18:06:19;11.85;;;4.65;;
44026;SDS011;29696;55.698;37.460;2022-11-14T18:09:04;13.03;;;4.73;;
44026;SDS011;29696;55.698;37.460;2022-11-14T18:11:49;3.80;;;2.38;;
44026;SDS011;29696;55.698;37.460;2022-11-14T18:14:34;7.80;;;3.28;;
44026;SDS011;29696;55.698;37.460;2022-11-14T18:17:19;9.15;;;2.50;;
44026;SDS011;29696;55.698;37.460;2022-11-14T18:20:04;9.48;;;4.35;;
44026;SDS011;29696;55.698;37.460;2022-11-14T18:22:49;8.90;;;3.23;;
44026;SDS011;29696;55.698;37.460;2022-11-14T18:25:34;4.03;;;2.70;;
44026;SDS011;29696;55.698;37.460;2022-11-14T18:28:19;7.85;;;2.58;;
44026;SDS011;29696;55.698;37.460;2022-11-14T18:31:04;5.72;;;2.83;;
44026;SDS011;29696;55.698;37.460;2022-11-14T18:33:51;4.67;;;2.10;;
44026;SDS011;29696;55.698;37.460;2022-11-14T18:36:36;9.85;;;4.53;;
44026;SDS011;29696;55.698;37.460;2022-11-14T18:39:20;6.32;;;2.55;;
44026;SDS011;29696;55.698;37.460;2022-11-14T18:42:05;6.07;;;2.58;;
44026;SDS011;29696;55.698;37.460;2022-11-14T18:44:50;14.70;;;2.58;;
44026;SDS011;29696;55.698;37.460;2022-11-14T18:47:35;20.23;;;2.28;;
44026;SDS011;29696;55.698;37.460;2022-11-14T18:50:20;2.60;;;1.90;;
44026;SDS011;29696;55.698;37.460;2022-11-14T18:53:05;5.10;;;2.17;;
44026;SDS011;29696;55.698;37.460;2022-11-14T18:55:49;9.05;;;1.95;;
44026;SDS011;29696;55.698;37.460;2022-11-14T18:58:36;1.93;;;1.70;;
44026;SDS011;29696;55.698;37.460;2022-11-14T19:01:26;3.67;;;2.33;;
44026;SDS011;29696;55.698;37.460;2022-11-14T19:04:12;2.03;;;1.27;;
44026;SDS011;29696;55.698;37.460;2022-11-14T19:07:00;2.70;;;2.10;;
44026;SDS011;29696;55.698;37.460;2022-11-14T19:12:30;9.70;;;3.27;;
44026;SDS011;29696;55.698;37.460;2022-11-14T19:15:15;6.13;;;1.45;;
44026;SDS011;29696;55.698;37.460;2022-11-14T19:18:00;6.07;;;2.20;;
44026;SDS011;29696;55.698;37.460;2022-11-14T19:20:57;5.13;;;3.45;;
44026;SDS011;29696;55.698;37.460;2022-11-14T19:23:43;12.27;;;2.03;;
44026;SDS011;29696;55.698;37.460;2022-11-14T19:26:28;3.13;;;1.13;;
44026;SDS011;29696;55.698;37.460;2022-11-14T19:29:14;3.67;;;1.70;;
44026;SDS011;29696;55.698;37.460;2022-11-14T19:31:58;3.58;;;1.45;;
44026;SDS011;29696;55.698;37.460;2022-11-14T19:34:43;2.60;;;1.42;;
44026;SDS011;29696;55.698;37.460;2022-11-14T19:37:29;2.77;;;1.43;;
44026;SDS011;29696;55.698;37.460;2022-11-14T19:40:14;5.57;;;1.25;;